Time;durP1;ratioP1;P1;durP2;ratioP2;P2;SDS_P1;SDS_P2;PMS_P1;PMS_P2;Temp;Humidity;BMP_temperature;BMP_pressure;BME280_temperature;BME280_humidity;BME280_pressure;Samples;Min_cycle;Max_cycle;Signal;HPM_P1;HPM_P2
2022/03/05 00:01:56;;;;;;;50.52;25.32;;;;;;;0.76;78.48;100829.80;2117438;82;21016;-76
2022/03/05 00:04:57;;;;;;;47.70;26.00;;;;;;;0.76;78.49;100833.72;2118202;82;21044;-78
2022/03/05 00:07:59;;;;;;;44.55;24.18;;;;;;;0.77;78.54;100827.59;2107755;82;21044;-80
2022/03/05 00:11:00;;;;;;;50.05;25.15;;;;;;;0.75;78.52;100828.12;2111974;83;21571;-80
2022/03/05 00:14:01;;;;;;;47.08;23.85;;;;;;;0.70;78.47;100840.13;2076761;84;21014;-77
2022/03/05 00:17:03;;;;;;;48.58;24.43;;;;;;;0.70;78.50;100840.59;2073380;84;21514;-76
2022/03/05 00:20:07;;;;;;;50.90;26.82;;;;;;;0.70;78.52;100837.98;2084238;84;21022;-80
2022/03/05 00:23:09;;;;;;;49.30;27.02;;;;;;;0.72;78.50;100838.28;2081034;84;21112;-76
2022/03/05 00:26:12;;;;;;;53.95;26.68;;;;;;;0.71;78.50;100834.00;2106233;84;21012;-76
2022/03/05 00:29:13;;;;;;;52.13;28.02;;;;;;;0.72;78.51;100832.22;2069491;85;21049;-78
2022/03/05 00:32:14;;;;;;;54.35;27.70;;;;;;;0.70;78.47;100833.59;2075019;84;21042;-79
2022/03/05 00:35:17;;;;;;;52.70;27.67;;;;;;;0.69;78.46;100828.01;2114576;83;21511;-77
2022/03/05 00:38:19;;;;;;;52.90;26.50;;;;;;;0.70;78.46;100834.06;2107681;83;21074;-77
2022/03/05 00:41:20;;;;;;;45.55;24.52;;;;;;;0.69;78.43;100833.23;2111047;83;20994;-79
2022/03/05 00:44:21;;;;;;;46.35;25.08;;;;;;;0.67;78.41;100829.86;2105306;84;20983;-76
2022/03/05 00:47:22;;;;;;;48.30;24.55;;;;;;;0.69;78.44;100827.17;2061847;84;21869;-75
2022/03/05 00:50:24;;;;;;;45.00;24.27;;;;;;;0.68;78.38;100827.64;2085178;84;21049;-80
2022/03/05 00:53:26;;;;;;;48.55;26.07;;;;;;;0.70;78.43;100827.54;2102479;84;20998;-75
2022/03/05 00:56:27;;;;;;;50.03;27.25;;;;;;;0.69;78.37;100822.78;2109332;83;21010;-80
2022/03/05 00:59:29;;;;;;;56.42;27.37;;;;;;;0.72;78.40;100817.38;2081718;84;21035;-78
2022/03/05 01:02:31;;;;;;;48.78;26.15;;;;;;;0.74;78.29;100818.62;2106812;84;21030;-79
2022/03/05 01:05:32;;;;;;;43.87;23.42;;;;;;;0.72;78.19;100820.47;2110595;83;21066;-77
2022/03/05 01:08:34;;;;;;;42.35;24.35;;;;;;;0.58;78.06;100824.69;2108680;83;20978;-77
2022/03/05 01:11:37;;;;;;;48.20;22.45;;;;;;;0.48;78.13;100821.36;2105474;83;21373;-78
2022/03/05 01:14:38;;;;;;;37.90;20.57;;;;;;;0.45;78.25;100821.06;2105156;84;21518;-78
2022/03/05 01:17:40;;;;;;;42.15;21.45;;;;;;;0.42;78.27;100825.16;2110096;84;21080;-79
2022/03/05 01:20:42;;;;;;;38.00;21.85;;;;;;;0.41;78.36;100826.09;2090651;83;21015;-77
2022/03/05 01:23:43;;;;;;;39.27;21.93;;;;;;;0.36;78.22;100825.02;2086826;84;21029;-76
2022/03/05 01:26:44;;;;;;;37.98;20.95;;;;;;;0.34;78.26;100822.98;2107827;84;20954;-77
2022/03/05 01:29:46;;;;;;;37.03;20.23;;;;;;;0.33;78.24;100822.58;2069333;85;21018;-78
2022/03/05 01:32:47;;;;;;;37.98;21.85;;;;;;;0.31;78.28;100823.16;2077458;84;21069;-77
2022/03/05 01:35:49;;;;;;;36.00;20.23;;;;;;;0.31;78.29;100821.84;2077474;84;21089;-78
2022/03/05 01:38:50;;;;;;;39.30;22.13;;;;;;;0.34;78.29;100827.34;2105359;84;21505;-78
2022/03/05 01:41:55;;;;;;;33.55;20.43;;;;;;;0.30;78.24;100828.45;2104282;83;20977;-75
2022/03/05 01:44:55;;;;;;;37.15;20.15;;;;;;;0.27;78.25;100826.00;2109128;83;21086;-79
2022/03/05 01:47:56;;;;;;;36.95;21.10;;;;;;;0.23;78.24;100829.25;2109760;84;21053;-80
2022/03/05 01:50:58;;;;;;;37.85;19.60;;;;;;;0.15;78.27;100827.05;2107369;83;20981;-77
2022/03/05 01:53:59;;;;;;;34.53;20.05;;;;;;;0.11;78.51;100824.67;2060044;84;21012;-79
2022/03/05 01:57:01;;;;;;;39.45;20.45;;;;;;;0.10;78.53;100822.53;2084882;84;21521;-76
2022/03/05 02:00:09;;;;;;;37.83;21.23;;;;;;;0.05;78.42;100827.15;2084472;84;21030;-79
2022/03/05 02:03:13;;;;;;;26.67;16.13;;;;;;;0.01;78.48;100822.20;2082670;84;21650;-78
2022/03/05 02:06:14;;;;;;;33.85;19.25;;;;;;;-0.04;78.64;100826.34;2084129;84;21022;-78
2022/03/05 02:09:15;;;;;;;31.73;18.85;;;;;;;-0.10;78.61;100817.08;2145050;82;21033;-77
2022/03/05 02:12:17;;;;;;;35.00;19.77;;;;;;;-0.10;78.67;100818.84;2090911;82;21009;-79
2022/03/05 02:15:18;;;;;;;38.35;21.50;;;;;;;-0.12;78.67;100817.61;2120149;82;21540;-80
2022/03/05 02:18:19;;;;;;;40.20;22.93;;;;;;;-0.12;78.74;100816.30;2121370;82;21314;-77
2022/03/05 02:21:21;;;;;;;46.77;21.97;;;;;;;-0.14;78.76;100814.70;2115104;82;20989;-77
2022/03/05 02:24:31;;;;;;;39.88;22.90;;;;;;;-0.18;78.90;100817.94;2138871;82;20997;-76
2022/03/05 02:27:33;;;;;;;42.90;22.93;;;;;;;-0.21;78.99;100808.14;2140858;82;20988;-77
2022/03/05 02:30:34;;;;;;;38.25;22.05;;;;;;;-0.20;79.15;100815.03;2141979;82;21049;-78
2022/03/05 02:33:36;;;;;;;36.77;21.85;;;;;;;-0.22;79.00;100815.59;2111214;82;21069;-79
2022/03/05 02:36:40;;;;;;;45.15;27.13;;;;;;;-0.25;78.98;100817.90;2141685;82;20996;-80
2022/03/05 02:39:46;;;;;;;38.60;23.42;;;;;;;-0.28;78.88;100818.06;2109190;82;21709;-79
2022/03/05 02:42:47;;;;;;;42.17;22.70;;;;;;;-0.31;78.93;100823.41;2152768;82;21520;-79
2022/03/05 02:45:51;;;;;;;35.50;19.75;;;;;;;-0.33;78.88;100831.80;2151881;82;20982;-78
2022/03/05 02:48:52;;;;;;;36.17;20.68;;;;;;;-0.37;78.99;100831.09;2115426;82;21025;-78
2022/03/05 02:51:53;;;;;;;30.90;18.75;;;;;;;-0.42;78.96;100830.52;2150784;82;20977;-80
2022/03/05 02:54:55;;;;;;;29.92;17.60;;;;;;;-0.49;78.92;100829.97;2146733;82;21076;-77
2022/03/05 02:57:57;;;;;;;32.75;18.45;;;;;;;-0.50;79.07;100835.27;2152216;82;21522;-78
2022/03/05 03:00:59;;;;;;;29.27;18.90;;;;;;;-0.54;79.02;100833.73;2148043;82;21100;-78
2022/03/05 03:04:00;;;;;;;33.23;18.00;;;;;;;-0.55;79.10;100838.57;2145386;82;21034;-79
2022/03/05 03:07:02;;;;;;;33.20;17.45;;;;;;;-0.56;79.14;100833.83;2115526;82;21520;-77
2022/03/05 03:10:06;;;;;;;30.82;19.25;;;;;;;-0.57;79.13;100829.51;2146860;82;21029;-80
2022/03/05 03:13:07;;;;;;;29.23;17.48;;;;;;;-0.57;79.13;100832.58;2109771;82;21504;-76
2022/03/05 03:16:09;;;;;;;29.23;15.93;;;;;;;-0.60;79.31;100826.22;2144689;82;20989;-81
2022/03/05 03:19:11;;;;;;;29.32;16.57;;;;;;;-0.63;79.11;100825.92;2112140;82;20993;-78
2022/03/05 03:22:12;;;;;;;32.03;16.52;;;;;;;-0.66;79.11;100829.98;2114571;82;21004;-81
2022/03/05 03:25:14;;;;;;;28.65;17.32;;;;;;;-0.66;79.16;100823.94;2084971;84;21012;-78
2022/03/05 03:28:16;;;;;;;28.30;17.90;;;;;;;-0.68;79.18;100829.21;2118726;82;21062;-76
2022/03/05 03:31:17;;;;;;;31.23;19.02;;;;;;;-0.72;79.12;100830.30;2145245;82;21042;-78
2022/03/05 03:34:18;;;;;;;33.20;21.70;;;;;;;-0.79;79.20;100827.17;2147028;82;21069;-76
2022/03/05 03:37:20;;;;;;;35.48;21.75;;;;;;;-0.84;79.41;100833.53;2145163;82;21298;-78
2022/03/05 03:40:21;;;;;;;38.25;23.15;;;;;;;-0.89;79.41;100825.93;2113013;82;20997;-76
2022/03/05 03:43:23;;;;;;;35.63;22.50;;;;;;;-0.91;79.47;100827.30;2136522;82;21022;-76
2022/03/05 03:46:24;;;;;;;38.05;22.13;;;;;;;-0.91;79.50;100823.85;2134727;81;21509;-78
2022/03/05 03:49:26;;;;;;;33.53;19.17;;;;;;;-0.87;79.50;100827.14;2145833;82;21025;-78
2022/03/05 03:52:27;;;;;;;33.50;17.92;;;;;;;-0.87;79.42;100824.53;2111807;82;21472;-78
2022/03/05 03:55:28;;;;;;;35.55;18.20;;;;;;;-0.93;79.65;100820.04;2141946;82;20959;-75
2022/03/05 03:58:30;;;;;;;29.57;17.35;;;;;;;-0.98;79.47;100827.70;2118218;82;20993;-78
2022/03/05 04:01:32;;;;;;;29.07;17.30;;;;;;;-0.99;79.54;100825.98;2096452;83;21064;-78
2022/03/05 04:04:33;;;;;;;28.17;16.73;;;;;;;-0.98;79.55;100830.30;2113980;82;21052;-76
2022/03/05 04:10:55;;;;;;;30.52;17.52;;;;;;;-0.87;79.60;100826.70;2133224;82;21049;-77
2022/03/05 04:13:56;;;;;;;29.70;17.05;;;;;;;-0.79;79.63;100829.77;2133098;82;21318;-78
2022/03/05 04:16:57;;;;;;;31.30;17.20;;;;;;;-0.70;79.53;100829.77;2131776;82;21029;-76
2022/03/05 04:23:19;;;;;;;30.27;17.05;;;;;;;-0.52;79.34;100832.73;2226440;78;22950;-73
2022/03/05 04:26:23;;;;;;;25.37;15.90;;;;;;;-0.48;79.38;100832.11;2191637;79;21044;-72
2022/03/05 04:29:31;;;;;;;29.10;16.42;;;;;;;-0.40;79.27;100827.81;2194264;79;21115;-73
2022/03/05 04:32:34;;;;;;;31.65;16.85;;;;;;;-0.37;79.14;100828.95;2191485;79;21051;-73
2022/03/05 04:35:38;;;;;;;25.82;15.72;;;;;;;-0.31;79.16;100828.62;2161902;79;21377;-73
2022/03/05 04:38:42;;;;;;;26.97;16.05;;;;;;;-0.24;79.05;100824.79;2191823;79;21062;-72
2022/03/05 04:41:45;;;;;;;31.17;16.23;;;;;;;-0.25;78.74;100827.86;2194735;79;21034;-75
2022/03/05 04:44:51;;;;;;;29.70;15.88;;;;;;;-0.35;78.64;100827.11;2189509;79;21061;-73
2022/03/05 04:47:53;;;;;;;25.85;14.80;;;;;;;-0.33;78.81;100829.19;2195306;79;21068;-77
2022/03/05 04:50:57;;;;;;;29.50;15.63;;;;;;;-0.35;78.64;100840.16;2195050;79;21042;-75
2022/03/05 04:53:59;;;;;;;36.68;17.90;;;;;;;-0.40;78.63;100836.47;2190863;79;21366;-74
2022/03/05 04:57:08;;;;;;;30.88;18.15;;;;;;;-0.41;78.74;100833.48;2198259;79;21045;-74
2022/03/05 05:00:12;;;;;;;30.20;17.67;;;;;;;-0.45;78.74;100837.19;2197209;79;21108;-76
2022/03/05 05:03:16;;;;;;;31.07;17.02;;;;;;;-0.51;78.75;100840.08;2194858;79;21006;-81
2022/03/05 05:06:18;;;;;;;32.15;16.55;;;;;;;-0.54;78.84;100838.48;2194864;79;21058;-75
2022/03/05 05:09:20;;;;;;;38.13;17.92;;;;;;;-0.55;78.82;100838.57;2190364;79;20991;-77
2022/03/05 05:12:24;;;;;;;28.20;15.83;;;;;;;-0.59;78.77;100840.93;2196150;79;21019;-74
2022/03/05 05:15:25;;;;;;;33.80;17.07;;;;;;;-0.64;78.73;100844.26;2195884;79;21145;-75
2022/03/05 05:18:32;;;;;;;24.87;15.60;;;;;;;-0.66;78.82;100842.18;2193380;79;21039;-77
2022/03/05 05:21:34;;;;;;;33.45;16.48;;;;;;;-0.66;78.80;100832.59;2187452;79;21684;-74
2022/03/05 05:24:37;;;;;;;26.48;15.90;;;;;;;-0.68;78.60;100847.45;2176581;80;21048;-74
2022/03/05 05:27:42;;;;;;;25.88;15.60;;;;;;;-0.72;78.64;100847.23;2179097;80;21041;-75
2022/03/05 05:30:49;;;;;;;30.02;15.83;;;;;;;-0.73;78.66;100841.66;2175711;80;22446;-75
2022/03/05 05:33:53;;;;;;;24.70;13.35;;;;;;;-0.78;78.49;100847.09;2181217;80;21064;-74
2022/03/05 05:36:58;;;;;;;25.27;14.15;;;;;;;-0.85;78.62;100853.97;2172948;80;21572;-76
2022/03/05 05:40:02;;;;;;;28.85;14.98;;;;;;;-0.94;78.61;100852.20;2175522;80;21027;-77
2022/03/05 05:43:04;;;;;;;27.52;14.65;;;;;;;-1.03;78.64;100853.96;2172925;80;21047;-75
2022/03/05 05:46:06;;;;;;;24.43;12.58;;;;;;;-1.12;78.68;100854.41;2174331;80;21065;-77
2022/03/05 05:49:13;;;;;;;28.57;14.90;;;;;;;-1.19;78.87;100856.45;2174383;80;21664;-75
2022/03/05 05:52:18;;;;;;;27.82;14.07;;;;;;;-1.25;78.90;100861.13;2177510;80;21079;-81
2022/03/05 05:55:21;;;;;;;27.42;15.10;;;;;;;-1.27;78.93;100861.18;2104620;83;21117;-75
2022/03/05 05:58:23;;;;;;;29.48;14.78;;;;;;;-1.27;78.93;100859.88;2170768;80;21038;-79
2022/03/05 06:01:25;;;;;;;28.65;13.70;;;;;;;-1.25;79.01;100855.91;2179846;80;21070;-75
2022/03/05 06:04:30;;;;;;;26.15;12.98;;;;;;;-1.07;79.08;100863.29;2176639;80;21030;-75
2022/03/05 06:07:33;;;;;;;27.02;14.03;;;;;;;-1.05;78.82;100861.00;2174042;80;21054;-74
2022/03/05 06:10:40;;;;;;;26.48;12.30;;;;;;;-1.06;78.72;100859.78;2175641;80;21047;-80
2022/03/05 06:13:42;;;;;;;26.25;12.80;;;;;;;-1.07;78.65;100864.16;2172316;80;21048;-74
2022/03/05 06:16:44;;;;;;;23.38;12.70;;;;;;;-1.05;78.67;100862.30;2174493;80;21038;-78
2022/03/05 06:19:46;;;;;;;24.57;13.38;;;;;;;-0.67;79.20;100871.78;2174546;80;21081;-73
2022/03/05 06:22:50;;;;;;;25.32;12.65;;;;;;;-0.16;79.18;100871.35;2176620;80;21735;-74
2022/03/05 06:25:56;;;;;;;27.80;13.72;;;;;;;0.32;78.52;100871.81;2190455;80;20998;-74
2022/03/05 06:28:58;;;;;;;25.17;13.88;;;;;;;0.71;78.16;100869.73;2180974;80;21075;-74
2022/03/05 06:32:02;;;;;;;26.05;14.55;;;;;;;1.06;77.68;100875.10;2183562;80;21033;-75
2022/03/05 06:35:09;;;;;;;24.00;13.53;;;;;;;1.36;77.12;100873.45;2188948;80;21620;-81
2022/03/05 06:38:13;;;;;;;26.77;14.47;;;;;;;1.65;77.06;100882.19;2155514;80;20998;-79
2022/03/05 06:41:15;;;;;;;27.90;15.03;;;;;;;1.98;76.51;100878.02;2181807;80;21070;-72
2022/03/05 06:44:18;;;;;;;26.93;15.38;;;;;;;2.11;75.68;100886.83;2181179;80;21009;-71
2022/03/05 06:47:20;;;;;;;25.82;15.88;;;;;;;2.33;75.63;100892.03;2156601;80;21026;-77
2022/03/05 06:50:25;;;;;;;38.60;19.85;;;;;;;2.39;74.76;100888.58;2179518;80;21018;-76
2022/03/05 06:53:27;;;;;;;48.13;24.50;;;;;;;2.21;74.42;100891.02;2183891;80;21045;-75
2022/03/05 06:56:36;;;;;;;60.12;29.10;;;;;;;1.89;74.53;100892.98;2190758;80;21037;-72
2022/03/05 06:59:32;;;;;;;57.80;24.52;;;;;;;1.19;73.26;100896.17;2180800;80;21124;-72
2022/03/05 07:02:38;;;;;;;38.28;21.55;;;;;;;0.65;73.99;100899.17;2180334;80;21104;-71
2022/03/05 07:05:41;;;;;;;40.83;21.40;;;;;;;0.31;74.69;100902.78;2181546;80;21090;-72
2022/03/05 07:08:43;;;;;;;48.05;27.00;;;;;;;0.11;74.97;100901.66;2184902;80;21150;-71
2022/03/05 07:11:45;;;;;;;53.60;28.57;;;;;;;-0.18;75.21;100909.23;2186936;80;21090;-71
2022/03/05 07:14:49;;;;;;;60.65;34.43;;;;;;;-0.31;75.59;100910.78;2181549;80;21058;-72
2022/03/05 07:17:53;;;;;;;52.43;30.43;;;;;;;-0.55;75.72;100915.48;2183779;80;21486;-72
2022/03/05 07:21:00;;;;;;;59.13;34.95;;;;;;;-0.70;76.40;100917.92;2188528;80;21006;-74
2022/03/05 07:24:04;;;;;;;68.87;42.65;;;;;;;-0.84;77.06;100916.91;2177279;80;21073;-76
2022/03/05 07:27:06;;;;;;;66.45;39.13;;;;;;;-1.02;76.85;100924.67;2177037;80;21018;-75
2022/03/05 07:30:11;;;;;;;75.25;39.90;;;;;;;-1.04;77.13;100921.75;2176229;80;21541;-77
2022/03/05 07:33:17;;;;;;;52.10;29.52;;;;;;;-1.08;77.19;100926.73;2176190;80;21072;-73
2022/03/05 07:36:22;;;;;;;51.02;29.80;;;;;;;-1.07;77.43;100934.48;2175664;80;21049;-75
2022/03/05 07:39:25;;;;;;;47.00;29.27;;;;;;;-1.01;77.42;100937.27;2176179;80;21534;-76
2022/03/05 07:42:31;;;;;;;57.75;33.15;;;;;;;-0.94;77.40;100932.97;2179706;80;21378;-76
2022/03/05 07:45:37;;;;;;;50.92;30.50;;;;;;;-0.95;77.23;100949.99;2179407;80;21005;-80
2022/03/05 07:48:39;;;;;;;60.28;37.17;;;;;;;-1.12;77.52;100948.18;2174290;80;21015;-76
2022/03/05 07:51:43;;;;;;;47.48;30.77;;;;;;;-1.30;77.67;100956.83;2172923;80;21009;-75
2022/03/05 07:54:47;;;;;;;53.35;32.70;;;;;;;-1.38;77.89;100954.57;2173255;80;21096;-77
2022/03/05 07:57:49;;;;;;;47.35;28.23;;;;;;;-1.43;78.12;100957.41;2177384;80;21022;-77
2022/03/05 08:00:53;;;;;;;50.58;31.02;;;;;;;-1.51;78.52;100950.39;2178087;80;21635;-76
2022/03/05 08:03:55;;;;;;;53.28;30.50;;;;;;;-1.59;78.47;100957.70;2175231;80;21112;-77
2022/03/05 08:06:56;;;;;;;44.25;28.83;;;;;;;-1.60;78.62;100954.26;2177751;80;21058;-79
2022/03/05 08:10:00;;;;;;;55.67;31.85;;;;;;;-1.57;78.61;100951.98;2176805;80;21027;-77
2022/03/05 08:13:04;;;;;;;49.80;28.25;;;;;;;-1.56;78.63;100956.26;2176475;80;21015;-79
2022/03/05 08:16:08;;;;;;;45.45;27.48;;;;;;;-1.47;78.85;100957.14;2158413;80;21109;-83
2022/03/05 08:19:15;;;;;;;47.00;28.47;;;;;;;-1.53;78.88;100958.72;2177766;80;20999;-80
2022/03/05 08:22:15;;;;;;;43.48;27.48;;;;;;;-1.54;79.12;100962.25;2181426;80;21070;-80
2022/03/05 08:25:21;;;;;;;50.80;33.23;;;;;;;-1.58;78.93;100959.37;2176806;80;21019;-80
2022/03/05 08:28:22;;;;;;;52.48;28.10;;;;;;;-1.51;79.00;100969.92;2181039;80;21031;-79
2022/03/05 08:31:24;;;;;;;47.10;27.82;;;;;;;-1.41;79.03;100967.30;2174386;80;21054;-78
2022/03/05 08:34:25;;;;;;;49.77;27.20;;;;;;;-1.28;79.16;100970.64;2152247;80;21538;-86
2022/03/05 08:37:27;;;;;;;41.80;25.62;;;;;;;-1.15;79.59;100969.16;2180700;80;21025;-80
2022/03/05 08:40:29;;;;;;;43.70;28.47;;;;;;;-0.88;79.64;100970.08;2178431;80;20986;-78
2022/03/05 08:43:31;;;;;;;37.75;23.52;;;;;;;-0.81;78.83;100965.81;2174104;80;21031;-83
2022/03/05 08:46:36;;;;;;;36.77;21.95;;;;;;;-0.82;78.51;100977.13;2177139;80;21031;-77
2022/03/05 08:49:41;;;;;;;40.48;22.37;;;;;;;-0.86;78.54;100970.86;2174632;80;21034;-80
2022/03/05 08:52:42;;;;;;;46.33;27.45;;;;;;;-0.87;78.50;100986.09;2156998;81;21112;-81
2022/03/05 08:55:44;;;;;;;42.53;27.05;;;;;;;-0.89;78.51;100980.96;2182662;80;21544;-82
2022/03/05 08:58:46;;;;;;;41.98;23.73;;;;;;;-0.85;78.66;100990.77;2155878;80;21087;-79
2022/03/05 09:01:47;;;;;;;43.45;24.85;;;;;;;-0.83;78.52;100988.48;2173309;80;21035;-80
2022/03/05 09:04:52;;;;;;;38.10;23.70;;;;;;;-0.85;78.43;100992.08;2175522;80;21006;-79
2022/03/05 09:07:54;;;;;;;46.25;25.65;;;;;;;-0.90;78.33;100998.83;2172419;80;21043;-80
2022/03/05 09:10:56;;;;;;;33.80;22.27;;;;;;;-0.89;78.48;100997.90;2180332;80;21089;-81
2022/03/05 09:13:58;;;;;;;38.92;23.47;;;;;;;-0.83;78.47;101001.52;2173258;80;21018;-79
2022/03/05 09:17:02;;;;;;;37.75;23.92;;;;;;;-0.78;78.39;100994.33;2182350;80;21043;-87
2022/03/05 09:20:05;;;;;;;42.17;26.97;;;;;;;-0.82;78.15;101002.35;2172653;80;20995;-80
2022/03/05 09:23:08;;;;;;;44.45;25.00;;;;;;;-0.86;78.18;100991.70;2172746;80;21358;-79
2022/03/05 09:26:10;;;;;;;36.93;23.25;;;;;;;-0.93;77.90;101001.11;2174978;80;21066;-79
2022/03/05 09:29:13;;;;;;;33.65;21.37;;;;;;;-0.96;78.14;100996.05;2149175;80;21443;-77
2022/03/05 09:32:15;;;;;;;32.63;20.90;;;;;;;-0.94;77.85;100996.80;2176320;80;21035;-81
2022/03/05 09:35:17;;;;;;;34.70;21.20;;;;;;;-1.07;77.83;100989.63;2177661;80;21053;-78
2022/03/05 09:38:19;;;;;;;35.28;20.10;;;;;;;-1.13;77.95;100993.36;2173382;80;21316;-78
2022/03/05 09:41:22;;;;;;;36.98;22.15;;;;;;;-1.08;77.96;100992.69;2180068;80;21060;-80
2022/03/05 09:44:24;;;;;;;38.42;23.65;;;;;;;-1.16;77.79;100988.29;2175479;80;21359;-80
2022/03/05 09:47:27;;;;;;;33.83;22.05;;;;;;;-1.07;78.03;100989.63;2172642;80;22188;-79
2022/03/05 09:50:34;;;;;;;38.15;23.30;;;;;;;-0.89;78.26;100993.16;2174932;80;21068;-81
2022/03/05 09:53:36;;;;;;;39.20;23.50;;;;;;;-0.86;77.68;101001.66;2177609;80;22352;-82
2022/03/05 09:56:37;;;;;;;41.70;24.82;;;;;;;-0.82;77.75;100995.84;2153534;80;21082;-81
2022/03/05 09:59:40;;;;;;;41.85;24.27;;;;;;;-0.83;77.76;100981.12;2176482;80;21013;-81
2022/03/05 10:02:47;;;;;;;42.62;24.43;;;;;;;-0.74;77.96;100991.11;2175523;80;21042;-82
2022/03/05 10:05:49;;;;;;;40.67;23.87;;;;;;;-0.63;77.95;100995.34;2175813;80;22193;-84
2022/03/05 10:08:57;;;;;;;43.40;25.45;;;;;;;-0.57;77.71;100982.02;2179916;80;20983;-81
2022/03/05 10:11:59;;;;;;;42.95;24.37;;;;;;;-0.51;77.69;100990.00;2178802;80;21423;-80
2022/03/05 10:15:20;;;;;;;48.73;29.20;;;;;;;-0.51;77.49;100993.48;2178508;80;22305;-84
2022/03/05 10:18:37;;;;;;;50.50;28.83;;;;;;;-0.58;77.39;100990.77;2153446;80;21058;-81
2022/03/05 10:21:39;;;;;;;51.42;27.48;;;;;;;-0.48;77.79;100988.54;2174528;80;21574;-78
2022/03/05 10:24:41;;;;;;;49.42;27.22;;;;;;;-0.28;77.74;100995.41;2192415;80;21030;-79
2022/03/05 10:27:43;;;;;;;42.75;25.55;;;;;;;-0.10;77.65;100987.96;2168916;80;21058;-78
2022/03/05 10:31:03;;;;;;;42.55;25.20;;;;;;;0.10;77.50;100986.11;2189847;80;21005;-80
2022/03/05 10:34:05;;;;;;;44.60;25.88;;;;;;;0.27;77.39;100989.99;2192989;80;20990;-78
2022/03/05 10:37:09;;;;;;;43.63;24.40;;;;;;;0.27;76.26;100987.84;2191237;80;21068;-79
2022/03/05 10:40:13;;;;;;;44.58;25.25;;;;;;;0.28;76.49;100981.23;2195918;80;21063;-77
2022/03/05 10:43:18;;;;;;;39.40;24.18;;;;;;;0.39;76.88;100980.20;2192076;80;21517;-82
2022/03/05 10:46:19;;;;;;;47.48;27.52;;;;;;;0.52;76.52;100973.05;2194810;80;21030;-80
2022/03/05 10:49:28;;;;;;;50.55;27.42;;;;;;;0.54;76.44;100972.52;2193229;80;21092;-79
2022/03/05 10:52:46;;;;;;;46.90;26.87;;;;;;;0.71;76.66;100971.61;2195927;80;21034;-79
2022/03/05 10:55:48;;;;;;;45.50;26.55;;;;;;;0.90;76.38;100973.58;2192974;80;21085;-80
2022/03/05 10:59:03;;;;;;;45.55;26.90;;;;;;;0.98;76.02;100969.25;2194849;80;21052;-79
2022/03/05 11:02:05;;;;;;;48.25;26.85;;;;;;;1.03;75.75;100971.15;2190151;80;21041;-80
2022/03/05 11:05:09;;;;;;;47.00;25.20;;;;;;;1.11;76.02;100975.02;2191903;80;21050;-80
2022/03/05 11:08:12;;;;;;;53.75;29.23;;;;;;;1.23;75.32;100973.48;2192950;80;21085;-81
2022/03/05 11:11:16;;;;;;;47.93;28.25;;;;;;;1.12;75.12;100971.94;2196988;80;21549;-79
2022/03/05 11:14:17;;;;;;;51.15;28.32;;;;;;;1.25;75.71;100976.87;2199189;80;20997;-80
2022/03/05 11:17:19;;;;;;;48.02;27.22;;;;;;;1.42;75.61;100979.00;2193829;80;21589;-81
2022/03/05 11:20:21;;;;;;;54.80;30.50;;;;;;;1.59;75.31;100972.81;2194068;80;21092;-82
2022/03/05 11:23:23;;;;;;;52.25;31.33;;;;;;;1.70;75.15;100963.41;2183433;80;21031;-82
2022/03/05 11:26:28;;;;;;;52.85;31.70;;;;;;;1.94;75.07;100957.66;2177811;80;21027;-78
2022/03/05 11:29:34;;;;;;;52.10;31.07;;;;;;;2.32;75.19;100950.59;2177867;80;21010;-84
2022/03/05 11:32:38;;;;;;;53.55;31.77;;;;;;;2.77;75.05;100959.17;2170248;80;22421;-83
2022/03/05 11:35:43;;;;;;;49.25;29.35;;;;;;;3.16;74.11;100953.19;2175647;80;21042;-82
2022/03/05 11:38:47;;;;;;;52.48;32.42;;;;;;;3.53;73.95;100939.81;2175750;80;21028;-77
2022/03/05 11:42:01;;;;;;;54.83;33.08;;;;;;;3.81;73.36;100940.61;2176493;80;21089;-82
2022/03/05 11:45:32;;;;;;;72.12;39.50;;;;;;;4.21;73.21;100944.45;2173513;80;21760;-82
2022/03/05 11:48:36;;;;;;;53.08;32.08;;;;;;;4.62;72.42;100942.89;2172912;80;22274;-79
2022/03/05 11:51:58;;;;;;;55.00;31.82;;;;;;;4.54;71.04;100939.96;2177423;80;21478;-84
2022/03/05 11:55:17;;;;;;;52.65;31.90;;;;;;;4.52;70.87;100933.96;2175037;80;21073;-81
2022/03/05 11:58:25;;;;;;;49.67;30.95;;;;;;;4.76;70.98;100921.33;2175206;80;21040;-79
2022/03/05 12:01:41;;;;;;;46.20;27.02;;;;;;;4.80;70.15;100920.18;2173011;80;21077;-71
2022/03/05 12:04:48;;;;;;;41.60;25.70;;;;;;;4.55;68.72;100928.48;2174687;80;21017;-77
2022/03/05 12:07:50;;;;;;;62.08;32.65;;;;;;;4.19;68.17;100920.06;2173611;80;21013;-82
2022/03/05 12:11:13;;;;;;;45.12;26.02;;;;;;;3.70;66.77;100918.17;2176872;80;21014;-83
2022/03/05 12:14:17;;;;;;;48.95;27.95;;;;;;;3.45;67.67;100917.17;2178616;80;21063;-82
2022/03/05 12:17:24;;;;;;;46.05;27.40;;;;;;;3.29;66.92;100920.42;2178093;80;21112;-82
2022/03/05 12:20:33;;;;;;;43.10;27.10;;;;;;;3.08;67.38;100919.58;2172593;80;21106;-82
2022/03/05 12:23:39;;;;;;;44.50;26.57;;;;;;;2.96;67.27;100921.69;2176433;80;21103;-83
2022/03/05 12:26:45;;;;;;;43.23;26.33;;;;;;;2.87;67.32;100924.87;2172429;80;21524;-82
2022/03/05 12:29:57;;;;;;;40.15;24.23;;;;;;;2.62;65.77;100917.75;2177947;80;21087;-82
2022/03/05 12:33:15;;;;;;;28.12;16.62;;;;;;;2.38;66.46;100924.02;2163114;80;21086;-81
2022/03/05 12:36:22;;;;;;;22.02;13.62;;;;;;;2.13;65.92;100919.44;2176139;80;21068;-82
2022/03/05 12:39:27;;;;;;;17.10;9.83;;;;;;;1.94;65.07;100917.95;2175533;80;21624;-77
2022/03/05 12:42:48;;;;;;;20.35;10.98;;;;;;;1.70;63.88;100916.78;2176552;80;21656;-82
2022/03/05 12:45:50;;;;;;;14.63;9.43;;;;;;;1.53;64.25;100919.08;2176263;80;22268;-82
2022/03/05 12:49:06;;;;;;;13.55;8.75;;;;;;;1.37;64.19;100925.64;2175107;80;21050;-85
2022/03/05 12:52:09;;;;;;;14.80;8.78;;;;;;;1.27;63.31;100920.11;2174268;80;21083;-85
2022/03/05 12:55:17;;;;;;;17.70;8.50;;;;;;;1.20;63.21;100925.30;2175933;80;21017;-83
2022/03/05 12:58:35;;;;;;;13.60;8.28;;;;;;;1.15;63.86;100924.70;2177639;80;21010;-84
2022/03/05 13:01:42;;;;;;;13.15;7.10;;;;;;;1.11;62.60;100921.91;2176961;80;21046;-84
2022/03/05 13:04:50;;;;;;;12.82;7.50;;;;;;;1.07;62.86;100915.14;2176006;80;22135;-77
2022/03/05 13:07:51;;;;;;;12.13;7.20;;;;;;;1.06;62.95;100918.70;2178360;80;21066;-78
2022/03/05 13:11:16;;;;;;;14.73;7.85;;;;;;;1.06;63.39;100926.07;2176266;80;21042;-85
2022/03/05 13:14:21;;;;;;;12.53;6.97;;;;;;;1.05;62.93;100916.55;2175243;80;21044;-85
2022/03/05 13:17:26;;;;;;;13.72;7.25;;;;;;;1.06;61.47;100923.92;2179361;80;20998;-83
2022/03/05 13:20:31;;;;;;;10.35;6.45;;;;;;;1.07;62.75;100925.60;2177804;80;21950;-84
2022/03/05 13:23:35;;;;;;;11.73;6.72;;;;;;;1.09;62.20;100925.89;2180949;80;21041;-84
2022/03/05 13:26:43;;;;;;;11.68;6.87;;;;;;;1.10;60.76;100928.07;2193671;80;21386;-84
2022/03/05 13:29:46;;;;;;;11.48;7.12;;;;;;;1.09;60.72;100919.36;2195871;80;21478;-87
2022/03/05 13:32:50;;;;;;;15.43;8.10;;;;;;;1.07;60.89;100916.45;2195671;80;21022;-85
2022/03/05 13:35:52;;;;;;;13.75;7.75;;;;;;;1.06;61.60;100923.45;2194841;80;21114;-83
2022/03/05 13:39:17;;;;;;;14.78;8.40;;;;;;;1.07;61.56;100921.24;2192415;80;21010;-84
2022/03/05 13:42:19;;;;;;;18.35;9.15;;;;;;;1.09;61.67;100925.06;2198727;80;21532;-78
2022/03/05 13:45:25;;;;;;;15.95;8.80;;;;;;;1.11;62.21;100925.82;2195140;80;21089;-83
2022/03/05 13:48:36;;;;;;;15.48;8.20;;;;;;;1.13;61.85;100923.98;2194387;80;21006;-79
2022/03/05 13:51:47;;;;;;;15.25;7.75;;;;;;;1.12;61.25;100917.88;2186868;80;21035;-83
2022/03/05 13:54:51;;;;;;;16.30;8.33;;;;;;;1.11;61.70;100912.75;2193809;80;21612;-76
2022/03/05 13:57:55;;;;;;;15.72;7.95;;;;;;;1.14;61.48;100921.73;2192507;80;21047;-80
2022/03/05 14:01:00;;;;;;;14.23;8.00;;;;;;;1.13;61.33;100918.75;2178669;80;21581;-76
2022/03/05 14:04:17;;;;;;;15.20;8.60;;;;;;;1.13;61.44;100910.91;2190826;80;20991;-81
2022/03/05 14:07:25;;;;;;;12.33;7.42;;;;;;;1.16;61.58;100912.50;2188215;80;21097;-76
2022/03/05 14:10:30;;;;;;;14.43;7.62;;;;;;;1.17;60.97;100902.41;2150481;80;21774;-81